sensor_id;sensor_type;location;lat;lon;timestamp;temperature;humidity
16388;DHT22;8303;53.446;9.988;2022-07-23T04:46:55;15.20;99.90
16388;DHT22;8303;53.446;9.988;2022-07-23T04:49:22;15.20;99.90
16388;DHT22;8303;53.446;9.988;2022-07-23T04:51:49;15.20;99.90
16388;DHT22;8303;53.446;9.988;2022-07-23T04:54:16;15.20;99.90
16388;DHT22;8303;53.446;9.988;2022-07-23T04:56:43;15.30;99.90
16388;DHT22;8303;53.446;9.988;2022-07-23T04:59:10;15.30;99.90
16388;DHT22;8303;53.446;9.988;2022-07-23T05:01:37;15.20;99.90
16388;DHT22;8303;53.446;9.988;2022-07-23T05:04:05;15.20;99.90
16388;DHT22;8303;53.446;9.988;2022-07-23T05:06:32;15.20;99.90
16388;DHT22;8303;53.446;9.988;2022-07-23T05:08:59;15.10;99.90
16388;DHT22;8303;53.446;9.988;2022-07-23T05:11:26;15.00;99.90
16388;DHT22;8303;53.446;9.988;2022-07-23T05:13:53;15.00;99.90
16388;DHT22;8303;53.446;9.988;2022-07-23T05:16:20;15.00;99.90
16388;DHT22;8303;53.446;9.988;2022-07-23T05:18:46;15.10;99.90
16388;DHT22;8303;53.446;9.988;2022-07-23T05:21:14;15.10;99.90
16388;DHT22;8303;53.446;9.988;2022-07-23T05:23:41;15.20;99.90
16388;DHT22;8303;53.446;9.988;2022-07-23T05:26:08;15.20;99.90
16388;DHT22;8303;53.446;9.988;2022-07-23T05:28:35;15.30;99.90
16388;DHT22;8303;53.446;9.988;2022-07-23T05:31:02;15.40;99.90
16388;DHT22;8303;53.446;9.988;2022-07-23T05:33:29;15.40;99.90
16388;DHT22;8303;53.446;9.988;2022-07-23T05:36:00;15.60;99.90
16388;DHT22;8303;53.446;9.988;2022-07-23T05:38:29;15.60;99.90
16388;DHT22;8303;53.446;9.988;2022-07-23T05:40:56;15.50;99.90
16388;DHT22;8303;53.446;9.988;2022-07-23T05:43:23;15.60;99.90
16388;DHT22;8303;53.446;9.988;2022-07-23T05:45:50;15.60;99.90
16388;DHT22;8303;53.446;9.988;2022-07-23T05:48:16;15.70;99.90
16388;DHT22;8303;53.446;9.988;2022-07-23T05:50:43;15.70;99.90
16388;DHT22;8303;53.446;9.988;2022-07-23T05:53:10;15.80;94.70
16388;DHT22;8303;53.446;9.988;2022-07-23T05:55:38;15.80;10.20
16388;DHT22;8303;53.446;9.988;2022-07-23T05:58:05;15.80;3.50
16388;DHT22;8303;53.446;9.988;2022-07-23T06:00:32;15.90;58.10
16388;DHT22;8303;53.446;9.988;2022-07-23T06:02:59;16.00;32.10
16388;DHT22;8303;53.446;9.988;2022-07-23T06:05:26;16.00;9.50
16388;DHT22;8303;53.446;9.988;2022-07-23T06:07:53;16.00;1.00
16388;DHT22;8303;53.446;9.988;2022-07-23T06:10:20;16.10;1.00
16388;DHT22;8303;53.446;9.988;2022-07-23T06:12:48;16.10;1.00
16388;DHT22;8303;53.446;9.988;2022-07-23T06:15:15;16.20;1.00
16388;DHT22;8303;53.446;9.988;2022-07-23T06:17:42;16.30;1.00
16388;DHT22;8303;53.446;9.988;2022-07-23T06:20:10;16.40;1.00
16388;DHT22;8303;53.446;9.988;2022-07-23T06:22:37;16.50;1.00
16388;DHT22;8303;53.446;9.988;2022-07-23T06:25:05;16.60;1.00
16388;DHT22;8303;53.446;9.988;2022-07-23T06:27:32;16.80;1.00
16388;DHT22;8303;53.446;9.988;2022-07-23T06:30:00;16.90;1.00
16388;DHT22;8303;53.446;9.988;2022-07-23T06:32:27;16.70;1.00
16388;DHT22;8303;53.446;9.988;2022-07-23T06:34:54;16.80;1.00
16388;DHT22;8303;53.446;9.988;2022-07-23T06:37:21;16.90;1.00
16388;DHT22;8303;53.446;9.988;2022-07-23T06:39:47;16.90;1.00
16388;DHT22;8303;53.446;9.988;2022-07-23T06:42:14;16.90;1.00
16388;DHT22;8303;53.446;9.988;2022-07-23T06:44:41;16.80;1.00
16388;DHT22;8303;53.446;9.988;2022-07-23T06:47:09;16.90;1.00
16388;DHT22;8303;53.446;9.988;2022-07-23T06:49:36;17.00;1.00
16388;DHT22;8303;53.446;9.988;2022-07-23T06:52:03;16.80;1.00
16388;DHT22;8303;53.446;9.988;2022-07-23T06:54:30;16.90;1.00
16388;DHT22;8303;53.446;9.988;2022-07-23T06:56:57;16.80;1.00
16388;DHT22;8303;53.446;9.988;2022-07-23T06:59:23;16.70;1.00
16388;DHT22;8303;53.446;9.988;2022-07-23T07:01:50;16.80;1.00
16388;DHT22;8303;53.446;9.988;2022-07-23T07:04:19;16.90;1.00
16388;DHT22;8303;53.446;9.988;2022-07-23T07:06:45;17.00;1.00
16388;DHT22;8303;53.446;9.988;2022-07-23T07:09:12;16.80;1.00
16388;DHT22;8303;53.446;9.988;2022-07-23T07:11:39;16.70;1.00
16388;DHT22;8303;53.446;9.988;2022-07-23T07:14:06;16.90;1.00
16388;DHT22;8303;53.446;9.988;2022-07-23T07:16:32;16.90;1.00
16388;DHT22;8303;53.446;9.988;2022-07-23T07:18:59;17.00;1.00
16388;DHT22;8303;53.446;9.988;2022-07-23T07:21:28;16.90;1.00
16388;DHT22;8303;53.446;9.988;2022-07-23T07:23:54;16.90;1.00
16388;DHT22;8303;53.446;9.988;2022-07-23T07:26:21;16.90;1.00
16388;DHT22;8303;53.446;9.988;2022-07-23T07:28:48;16.80;1.00
16388;DHT22;8303;53.446;9.988;2022-07-23T07:31:15;16.90;1.00
16388;DHT22;8303;53.446;9.988;2022-07-23T07:33:42;17.20;1.00
16388;DHT22;8303;53.446;9.988;2022-07-23T07:36:09;17.40;1.00
16388;DHT22;8303;53.446;9.988;2022-07-23T07:38:37;17.60;1.00
16388;DHT22;8303;53.446;9.988;2022-07-23T07:41:04;17.60;1.00
16388;DHT22;8303;53.446;9.988;2022-07-23T07:43:31;17.60;1.00
16388;DHT22;8303;53.446;9.988;2022-07-23T07:45:58;17.60;1.00
16388;DHT22;8303;53.446;9.988;2022-07-23T07:48:24;17.50;1.00
16388;DHT22;8303;53.446;9.988;2022-07-23T07:50:51;17.50;1.00
16388;DHT22;8303;53.446;9.988;2022-07-23T07:53:19;17.60;1.00
16388;DHT22;8303;53.446;9.988;2022-07-23T07:55:47;17.70;1.00
16388;DHT22;8303;53.446;9.988;2022-07-23T07:58:14;17.70;1.00
16388;DHT22;8303;53.446;9.988;2022-07-23T08:00:41;17.80;1.00
16388;DHT22;8303;53.446;9.988;2022-07-23T08:03:07;17.90;1.00
16388;DHT22;8303;53.446;9.988;2022-07-23T08:05:34;18.10;1.00
16388;DHT22;8303;53.446;9.988;2022-07-23T08:08:01;18.40;1.00
16388;DHT22;8303;53.446;9.988;2022-07-23T08:10:28;18.40;1.00
16388;DHT22;8303;53.446;9.988;2022-07-23T08:12:58;18.40;1.00
16388;DHT22;8303;53.446;9.988;2022-07-23T08:15:27;18.90;1.00
16388;DHT22;8303;53.446;9.988;2022-07-23T08:17:55;19.00;1.00
16388;DHT22;8303;53.446;9.988;2022-07-23T08:20:22;18.50;1.00
16388;DHT22;8303;53.446;9.988;2022-07-23T08:22:50;18.40;1.00
16388;DHT22;8303;53.446;9.988;2022-07-23T08:25:20;18.10;1.00
16388;DHT22;8303;53.446;9.988;2022-07-23T08:27:47;17.60;1.00
16388;DHT22;8303;53.446;9.988;2022-07-23T08:30:16;17.40;1.00
16388;DHT22;8303;53.446;9.988;2022-07-23T08:32:51;17.00;1.00
16388;DHT22;8303;53.446;9.988;2022-07-23T08:35:21;16.90;1.00
16388;DHT22;8303;53.446;9.988;2022-07-23T08:37:48;17.10;1.00
16388;DHT22;8303;53.446;9.988;2022-07-23T08:40:15;17.10;1.00
16388;DHT22;8303;53.446;9.988;2022-07-23T08:42:42;16.90;1.00
16388;DHT22;8303;53.446;9.988;2022-07-23T08:45:09;16.70;1.00
16388;DHT22;8303;53.446;9.988;2022-07-23T08:47:38;16.90;1.00
16388;DHT22;8303;53.446;9.988;2022-07-23T08:50:07;17.10;1.00
16388;DHT22;8303;53.446;9.988;2022-07-23T08:52:36;17.30;1.00
16388;DHT22;8303;53.446;9.988;2022-07-23T08:55:03;17.20;1.00
16388;DHT22;8303;53.446;9.988;2022-07-23T08:57:30;17.40;1.00
16388;DHT22;8303;53.446;9.988;2022-07-23T08:59:57;17.50;1.00
16388;DHT22;8303;53.446;9.988;2022-07-23T09:02:24;17.30;1.00
16388;DHT22;8303;53.446;9.988;2022-07-23T09:04:52;17.60;1.00
16388;DHT22;8303;53.446;9.988;2022-07-23T09:07:19;17.60;1.00
16388;DHT22;8303;53.446;9.988;2022-07-23T09:09:46;18.00;1.00
16388;DHT22;8303;53.446;9.988;2022-07-23T09:12:13;18.30;99.90
16388;DHT22;8303;53.446;9.988;2022-07-23T09:14:41;18.70;99.90
16388;DHT22;8303;53.446;9.988;2022-07-23T09:17:10;18.80;99.90
16388;DHT22;8303;53.446;9.988;2022-07-23T09:19:37;18.80;99.90
16388;DHT22;8303;53.446;9.988;2022-07-23T09:22:22;18.90;99.90
16388;DHT22;8303;53.446;9.988;2022-07-23T09:25:08;18.90;99.90
16388;DHT22;8303;53.446;9.988;2022-07-23T09:27:51;19.20;99.90
16388;DHT22;8303;53.446;9.988;2022-07-23T09:30:19;19.40;99.90
16388;DHT22;8303;53.446;9.988;2022-07-23T09:33:07;19.70;99.90
16388;DHT22;8303;53.446;9.988;2022-07-23T09:35:45;19.90;99.90
16388;DHT22;8303;53.446;9.988;2022-07-23T09:38:14;20.10;99.90
16388;DHT22;8303;53.446;9.988;2022-07-23T09:40:42;20.20;99.90
16388;DHT22;8303;53.446;9.988;2022-07-23T09:43:12;20.10;99.90
16388;DHT22;8303;53.446;9.988;2022-07-23T09:45:51;20.10;99.90
16388;DHT22;8303;53.446;9.988;2022-07-23T09:48:18;20.30;99.90
16388;DHT22;8303;53.446;9.988;2022-07-23T09:50:45;20.40;99.90
16388;DHT22;8303;53.446;9.988;2022-07-23T09:53:24;20.10;99.90
16388;DHT22;8303;53.446;9.988;2022-07-23T09:55:54;20.30;99.90
16388;DHT22;8303;53.446;9.988;2022-07-23T09:58:23;20.20;99.90
16388;DHT22;8303;53.446;9.988;2022-07-23T10:00:53;20.10;99.90
16388;DHT22;8303;53.446;9.988;2022-07-23T10:03:20;20.00;99.90
16388;DHT22;8303;53.446;9.988;2022-07-23T10:05:48;20.00;99.90
16388;DHT22;8303;53.446;9.988;2022-07-23T10:08:18;20.00;99.90
16388;DHT22;8303;53.446;9.988;2022-07-23T10:10:50;19.60;99.90
16388;DHT22;8303;53.446;9.988;2022-07-23T10:13:17;19.40;99.90
16388;DHT22;8303;53.446;9.988;2022-07-23T10:15:58;19.30;99.90
16388;DHT22;8303;53.446;9.988;2022-07-23T10:18:25;19.10;99.90
16388;DHT22;8303;53.446;9.988;2022-07-23T10:20:53;18.90;99.90
16388;DHT22;8303;53.446;9.988;2022-07-23T10:23:24;19.00;99.90
16388;DHT22;8303;53.446;9.988;2022-07-23T10:25:59;18.90;99.90
16388;DHT22;8303;53.446;9.988;2022-07-23T10:28:42;19.10;99.90
16388;DHT22;8303;53.446;9.988;2022-07-23T10:31:20;19.20;99.90
16388;DHT22;8303;53.446;9.988;2022-07-23T10:33:56;19.40;99.90
16388;DHT22;8303;53.446;9.988;2022-07-23T10:36:35;19.30;99.90
16388;DHT22;8303;53.446;9.988;2022-07-23T10:39:05;19.50;99.90
16388;DHT22;8303;53.446;9.988;2022-07-23T10:41:37;19.70;99.90
16388;DHT22;8303;53.446;9.988;2022-07-23T10:44:08;19.60;99.90
16388;DHT22;8303;53.446;9.988;2022-07-23T10:46:35;19.70;99.90
16388;DHT22;8303;53.446;9.988;2022-07-23T10:49:24;20.00;99.90
16388;DHT22;8303;53.446;9.988;2022-07-23T10:52:16;20.20;99.90
16388;DHT22;8303;53.446;9.988;2022-07-23T10:54:45;20.40;99.90
16388;DHT22;8303;53.446;9.988;2022-07-23T10:57:14;20.60;99.90
16388;DHT22;8303;53.446;9.988;2022-07-23T11:00:12;20.60;99.90
16388;DHT22;8303;53.446;9.988;2022-07-23T11:02:40;20.70;99.90
16388;DHT22;8303;53.446;9.988;2022-07-23T11:05:09;20.90;99.90
16388;DHT22;8303;53.446;9.988;2022-07-23T11:10:34;20.70;99.90
16388;DHT22;8303;53.446;9.988;2022-07-23T11:13:30;21.10;99.90
16388;DHT22;8303;53.446;9.988;2022-07-23T11:16:14;21.30;99.90
16388;DHT22;8303;53.446;9.988;2022-07-23T11:19:05;21.00;99.90
16388;DHT22;8303;53.446;9.988;2022-07-23T11:21:46;20.80;99.90
16388;DHT22;8303;53.446;9.988;2022-07-23T11:24:18;21.40;99.90
16388;DHT22;8303;53.446;9.988;2022-07-23T11:27:03;21.50;99.90
16388;DHT22;8303;53.446;9.988;2022-07-23T11:29:48;21.60;99.90
16388;DHT22;8303;53.446;9.988;2022-07-23T11:32:30;21.90;99.90
16388;DHT22;8303;53.446;9.988;2022-07-23T11:34:59;21.60;99.90
16388;DHT22;8303;53.446;9.988;2022-07-23T11:37:33;21.60;99.90
16388;DHT22;8303;53.446;9.988;2022-07-23T11:40:00;21.70;99.90
16388;DHT22;8303;53.446;9.988;2022-07-23T11:42:27;21.50;99.90
16388;DHT22;8303;53.446;9.988;2022-07-23T11:44:56;21.30;99.90
16388;DHT22;8303;53.446;9.988;2022-07-23T11:47:25;21.10;99.90
16388;DHT22;8303;53.446;9.988;2022-07-23T11:49:53;21.30;99.90
16388;DHT22;8303;53.446;9.988;2022-07-23T11:52:21;21.20;99.90
16388;DHT22;8303;53.446;9.988;2022-07-23T11:54:50;21.20;99.90
16388;DHT22;8303;53.446;9.988;2022-07-23T11:57:18;20.70;99.90
16388;DHT22;8303;53.446;9.988;2022-07-23T11:59:46;20.60;99.90
16388;DHT22;8303;53.446;9.988;2022-07-23T12:02:15;20.80;99.90
16388;DHT22;8303;53.446;9.988;2022-07-23T12:04:44;20.90;99.90
16388;DHT22;8303;53.446;9.988;2022-07-23T12:07:25;20.90;99.90
16388;DHT22;8303;53.446;9.988;2022-07-23T12:09:53;20.90;99.90
16388;DHT22;8303;53.446;9.988;2022-07-23T12:12:20;21.10;99.90
16388;DHT22;8303;53.446;9.988;2022-07-23T12:14:49;21.10;99.90
16388;DHT22;8303;53.446;9.988;2022-07-23T12:17:18;21.00;99.90
16388;DHT22;8303;53.446;9.988;2022-07-23T12:19:46;20.70;99.90
16388;DHT22;8303;53.446;9.988;2022-07-23T12:22:13;20.90;99.90
16388;DHT22;8303;53.446;9.988;2022-07-23T12:24:56;21.00;99.90
16388;DHT22;8303;53.446;9.988;2022-07-23T12:27:24;21.70;99.90
16388;DHT22;8303;53.446;9.988;2022-07-23T12:29:51;21.80;99.90
16388;DHT22;8303;53.446;9.988;2022-07-23T12:32:21;22.00;99.90
16388;DHT22;8303;53.446;9.988;2022-07-23T12:34:50;22.00;99.90
16388;DHT22;8303;53.446;9.988;2022-07-23T12:37:29;21.90;99.90
16388;DHT22;8303;53.446;9.988;2022-07-23T12:39:56;21.90;99.90
16388;DHT22;8303;53.446;9.988;2022-07-23T12:42:23;21.60;99.90
16388;DHT22;8303;53.446;9.988;2022-07-23T12:45:10;21.20;99.90
16388;DHT22;8303;53.446;9.988;2022-07-23T12:47:52;20.80;99.90
16388;DHT22;8303;53.446;9.988;2022-07-23T12:50:41;20.60;99.90
16388;DHT22;8303;53.446;9.988;2022-07-23T12:53:12;20.30;99.90
16388;DHT22;8303;53.446;9.988;2022-07-23T12:55:40;20.00;99.90
16388;DHT22;8303;53.446;9.988;2022-07-23T12:58:11;20.00;99.90
16388;DHT22;8303;53.446;9.988;2022-07-23T13:00:58;20.00;99.90
16388;DHT22;8303;53.446;9.988;2022-07-23T13:03:29;20.00;99.90
16388;DHT22;8303;53.446;9.988;2022-07-23T13:05:57;19.60;99.90
16388;DHT22;8303;53.446;9.988;2022-07-23T13:08:25;19.70;99.90
16388;DHT22;8303;53.446;9.988;2022-07-23T13:10:54;20.10;99.90
16388;DHT22;8303;53.446;9.988;2022-07-23T13:13:22;20.50;99.90
16388;DHT22;8303;53.446;9.988;2022-07-23T13:15:50;20.80;99.90
16388;DHT22;8303;53.446;9.988;2022-07-23T13:18:17;21.60;99.90
16388;DHT22;8303;53.446;9.988;2022-07-23T13:20:47;21.40;99.90
16388;DHT22;8303;53.446;9.988;2022-07-23T13:23:14;21.00;99.90
16388;DHT22;8303;53.446;9.988;2022-07-23T13:25:41;20.50;99.90
16388;DHT22;8303;53.446;9.988;2022-07-23T13:28:08;20.50;99.90
16388;DHT22;8303;53.446;9.988;2022-07-23T13:30:35;20.70;99.90
16388;DHT22;8303;53.446;9.988;2022-07-23T13:33:03;20.80;99.90
16388;DHT22;8303;53.446;9.988;2022-07-23T13:35:34;21.50;99.90
16388;DHT22;8303;53.446;9.988;2022-07-23T13:38:03;21.10;99.90
16388;DHT22;8303;53.446;9.988;2022-07-23T13:40:30;20.90;99.90
16388;DHT22;8303;53.446;9.988;2022-07-23T13:42:57;20.50;99.90
16388;DHT22;8303;53.446;9.988;2022-07-23T13:45:24;20.50;99.90
16388;DHT22;8303;53.446;9.988;2022-07-23T13:47:51;20.40;99.90
16388;DHT22;8303;53.446;9.988;2022-07-23T13:50:18;20.00;99.90
16388;DHT22;8303;53.446;9.988;2022-07-23T13:52:44;20.10;99.90
16388;DHT22;8303;53.446;9.988;2022-07-23T13:55:13;19.80;99.90
16388;DHT22;8303;53.446;9.988;2022-07-23T13:57:39;20.10;99.90
16388;DHT22;8303;53.446;9.988;2022-07-23T14:00:08;20.60;99.90
16388;DHT22;8303;53.446;9.988;2022-07-23T14:02:36;20.80;99.90
16388;DHT22;8303;53.446;9.988;2022-07-23T14:05:04;20.80;99.90
16388;DHT22;8303;53.446;9.988;2022-07-23T14:07:32;20.60;99.90
16388;DHT22;8303;53.446;9.988;2022-07-23T14:09:59;20.50;99.90
16388;DHT22;8303;53.446;9.988;2022-07-23T14:12:27;20.40;99.90
16388;DHT22;8303;53.446;9.988;2022-07-23T14:14:54;20.70;99.90
16388;DHT22;8303;53.446;9.988;2022-07-23T14:17:22;20.70;99.90
16388;DHT22;8303;53.446;9.988;2022-07-23T14:19:50;21.00;99.90
16388;DHT22;8303;53.446;9.988;2022-07-23T14:22:17;20.80;99.90
16388;DHT22;8303;53.446;9.988;2022-07-23T14:24:44;21.00;99.90
16388;DHT22;8303;53.446;9.988;2022-07-23T14:27:11;21.80;99.90
16388;DHT22;8303;53.446;9.988;2022-07-23T14:29:39;22.80;99.90
16388;DHT22;8303;53.446;9.988;2022-07-23T14:32:07;23.50;99.90
16388;DHT22;8303;53.446;9.988;2022-07-23T14:34:34;23.90;99.90
16388;DHT22;8303;53.446;9.988;2022-07-23T14:37:01;23.80;99.90
16388;DHT22;8303;53.446;9.988;2022-07-23T14:39:28;22.70;99.90
16388;DHT22;8303;53.446;9.988;2022-07-23T14:41:55;21.70;99.90
16388;DHT22;8303;53.446;9.988;2022-07-23T14:44:22;21.00;99.90
16388;DHT22;8303;53.446;9.988;2022-07-23T14:46:50;21.60;99.90
16388;DHT22;8303;53.446;9.988;2022-07-23T14:49:17;22.00;99.90
16388;DHT22;8303;53.446;9.988;2022-07-23T14:51:43;23.10;99.90
16388;DHT22;8303;53.446;9.988;2022-07-23T14:54:11;23.40;99.90
16388;DHT22;8303;53.446;9.988;2022-07-23T14:56:39;23.40;99.90
16388;DHT22;8303;53.446;9.988;2022-07-23T14:59:06;23.60;99.90
16388;DHT22;8303;53.446;9.988;2022-07-23T15:01:34;23.20;99.90
16388;DHT22;8303;53.446;9.988;2022-07-23T15:04:05;23.20;99.90
16388;DHT22;8303;53.446;9.988;2022-07-23T15:06:33;22.70;99.90
16388;DHT22;8303;53.446;9.988;2022-07-23T15:09:00;22.80;99.90
16388;DHT22;8303;53.446;9.988;2022-07-23T15:11:27;23.50;99.90
16388;DHT22;8303;53.446;9.988;2022-07-23T15:13:57;23.90;99.90
16388;DHT22;8303;53.446;9.988;2022-07-23T15:16:24;23.00;99.90
16388;DHT22;8303;53.446;9.988;2022-07-23T15:18:51;22.50;99.90
16388;DHT22;8303;53.446;9.988;2022-07-23T15:21:19;22.30;99.90
16388;DHT22;8303;53.446;9.988;2022-07-23T15:23:46;21.80;99.90
16388;DHT22;8303;53.446;9.988;2022-07-23T15:26:13;21.50;99.90
16388;DHT22;8303;53.446;9.988;2022-07-23T15:28:41;22.80;99.90
16388;DHT22;8303;53.446;9.988;2022-07-23T15:31:09;24.60;99.90
16388;DHT22;8303;53.446;9.988;2022-07-23T15:33:36;22.80;99.90
16388;DHT22;8303;53.446;9.988;2022-07-23T15:36:05;21.70;99.90
16388;DHT22;8303;53.446;9.988;2022-07-23T15:38:34;21.40;99.90
16388;DHT22;8303;53.446;9.988;2022-07-23T15:41:00;21.80;99.90
16388;DHT22;8303;53.446;9.988;2022-07-23T15:43:27;21.70;99.90
16388;DHT22;8303;53.446;9.988;2022-07-23T15:45:54;21.10;99.90
16388;DHT22;8303;53.446;9.988;2022-07-23T15:48:21;21.00;99.90
16388;DHT22;8303;53.446;9.988;2022-07-23T15:50:49;21.60;99.90
16388;DHT22;8303;53.446;9.988;2022-07-23T15:53:16;23.10;99.90
16388;DHT22;8303;53.446;9.988;2022-07-23T15:55:44;24.30;99.90
16388;DHT22;8303;53.446;9.988;2022-07-23T15:58:12;27.10;99.90
16388;DHT22;8303;53.446;9.988;2022-07-23T16:00:39;28.00;99.90
16388;DHT22;8303;53.446;9.988;2022-07-23T16:03:06;27.00;99.90
16388;DHT22;8303;53.446;9.988;2022-07-23T16:05:33;23.90;99.90
16388;DHT22;8303;53.446;9.988;2022-07-23T16:08:01;22.10;99.90
16388;DHT22;8303;53.446;9.988;2022-07-23T16:10:28;23.90;99.90
16388;DHT22;8303;53.446;9.988;2022-07-23T16:12:57;23.80;99.90
16388;DHT22;8303;53.446;9.988;2022-07-23T16:15:24;25.50;99.90
16388;DHT22;8303;53.446;9.988;2022-07-23T16:17:52;24.90;99.90
16388;DHT22;8303;53.446;9.988;2022-07-23T16:20:19;25.90;99.90
16388;DHT22;8303;53.446;9.988;2022-07-23T16:22:46;26.00;99.90
16388;DHT22;8303;53.446;9.988;2022-07-23T16:25:13;25.50;99.90
16388;DHT22;8303;53.446;9.988;2022-07-23T16:27:41;23.70;99.90
16388;DHT22;8303;53.446;9.988;2022-07-23T16:30:11;25.20;99.90
16388;DHT22;8303;53.446;9.988;2022-07-23T16:32:38;24.70;99.90
16388;DHT22;8303;53.446;9.988;2022-07-23T16:35:05;24.70;99.90
16388;DHT22;8303;53.446;9.988;2022-07-23T16:37:33;24.90;99.90
16388;DHT22;8303;53.446;9.988;2022-07-23T16:40:01;26.10;99.90
16388;DHT22;8303;53.446;9.988;2022-07-23T16:42:28;24.10;99.90
16388;DHT22;8303;53.446;9.988;2022-07-23T16:44:55;23.60;99.90
16388;DHT22;8303;53.446;9.988;2022-07-23T16:47:23;22.20;99.90
16388;DHT22;8303;53.446;9.988;2022-07-23T16:49:50;22.00;99.90
16388;DHT22;8303;53.446;9.988;2022-07-23T16:52:17;23.80;99.90
16388;DHT22;8303;53.446;9.988;2022-07-23T16:54:44;25.10;99.90
16388;DHT22;8303;53.446;9.988;2022-07-23T16:57:11;25.30;99.90
16388;DHT22;8303;53.446;9.988;2022-07-23T16:59:38;25.60;99.90
16388;DHT22;8303;53.446;9.988;2022-07-23T17:02:05;25.90;99.90
16388;DHT22;8303;53.446;9.988;2022-07-23T17:04:33;26.60;99.90
16388;DHT22;8303;53.446;9.988;2022-07-23T17:07:00;24.40;99.90
16388;DHT22;8303;53.446;9.988;2022-07-23T17:09:31;23.30;99.90
16388;DHT22;8303;53.446;9.988;2022-07-23T17:11:58;23.00;99.90
16388;DHT22;8303;53.446;9.988;2022-07-23T17:14:25;24.10;99.90
16388;DHT22;8303;53.446;9.988;2022-07-23T17:16:52;23.10;99.90
16388;DHT22;8303;53.446;9.988;2022-07-23T17:19:19;21.50;99.90
16388;DHT22;8303;53.446;9.988;2022-07-23T17:21:47;20.90;99.90
16388;DHT22;8303;53.446;9.988;2022-07-23T17:24:14;20.40;99.90
16388;DHT22;8303;53.446;9.988;2022-07-23T17:26:41;20.10;99.90
16388;DHT22;8303;53.446;9.988;2022-07-23T17:29:08;19.80;99.90
16388;DHT22;8303;53.446;9.988;2022-07-23T17:31:35;19.70;99.90
16388;DHT22;8303;53.446;9.988;2022-07-23T17:34:01;20.70;99.90
16388;DHT22;8303;53.446;9.988;2022-07-23T17:36:28;20.50;99.90
16388;DHT22;8303;53.446;9.988;2022-07-23T17:38:56;19.80;99.90
16388;DHT22;8303;53.446;9.988;2022-07-23T17:41:23;20.20;99.90
16388;DHT22;8303;53.446;9.988;2022-07-23T17:43:50;20.30;99.90
16388;DHT22;8303;53.446;9.988;2022-07-23T17:46:17;21.50;99.90
16388;DHT22;8303;53.446;9.988;2022-07-23T17:48:44;22.70;99.90
16388;DHT22;8303;53.446;9.988;2022-07-23T17:51:12;23.80;99.90
16388;DHT22;8303;53.446;9.988;2022-07-23T17:53:39;23.80;99.90
16388;DHT22;8303;53.446;9.988;2022-07-23T17:56:08;21.80;99.90
16388;DHT22;8303;53.446;9.988;2022-07-23T17:58:35;21.40;99.90
16388;DHT22;8303;53.446;9.988;2022-07-23T18:01:01;22.10;99.90
16388;DHT22;8303;53.446;9.988;2022-07-23T18:03:29;22.50;99.90
16388;DHT22;8303;53.446;9.988;2022-07-23T18:05:56;23.10;99.90
16388;DHT22;8303;53.446;9.988;2022-07-23T18:08:23;23.20;99.90
16388;DHT22;8303;53.446;9.988;2022-07-23T18:10:50;23.10;99.90
16388;DHT22;8303;53.446;9.988;2022-07-23T18:13:18;22.50;99.90
16388;DHT22;8303;53.446;9.988;2022-07-23T18:15:45;22.50;99.90
16388;DHT22;8303;53.446;9.988;2022-07-23T18:18:12;22.20;99.90
16388;DHT22;8303;53.446;9.988;2022-07-23T18:20:39;21.90;99.90
16388;DHT22;8303;53.446;9.988;2022-07-23T18:23:06;22.10;99.90
16388;DHT22;8303;53.446;9.988;2022-07-23T18:25:33;21.90;99.90
16388;DHT22;8303;53.446;9.988;2022-07-23T18:27:59;21.30;99.90
16388;DHT22;8303;53.446;9.988;2022-07-23T18:30:28;21.30;99.90
16388;DHT22;8303;53.446;9.988;2022-07-23T18:32:54;21.00;99.90
16388;DHT22;8303;53.446;9.988;2022-07-23T18:35:21;21.20;99.90
16388;DHT22;8303;53.446;9.988;2022-07-23T18:37:48;21.00;99.90
16388;DHT22;8303;53.446;9.988;2022-07-23T18:40:16;20.70;99.90
16388;DHT22;8303;53.446;9.988;2022-07-23T18:42:44;20.80;99.90
16388;DHT22;8303;53.446;9.988;2022-07-23T18:45:12;20.70;99.90
16388;DHT22;8303;53.446;9.988;2022-07-23T18:47:41;20.70;99.90
16388;DHT22;8303;53.446;9.988;2022-07-23T18:50:11;20.50;99.90
16388;DHT22;8303;53.446;9.988;2022-07-23T18:52:38;20.20;99.90
16388;DHT22;8303;53.446;9.988;2022-07-23T18:55:07;19.70;99.90
16388;DHT22;8303;53.446;9.988;2022-07-23T18:57:34;19.50;99.90
16388;DHT22;8303;53.446;9.988;2022-07-23T19:00:02;19.40;99.90
16388;DHT22;8303;53.446;9.988;2022-07-23T19:02:30;19.00;99.90
16388;DHT22;8303;53.446;9.988;2022-07-23T19:04:58;18.40;99.90
16388;DHT22;8303;53.446;9.988;2022-07-23T19:07:25;18.00;99.90
16388;DHT22;8303;53.446;9.988;2022-07-23T19:09:52;17.50;99.90
16388;DHT22;8303;53.446;9.988;2022-07-23T19:12:18;17.40;99.90
16388;DHT22;8303;53.446;9.988;2022-07-23T19:14:45;17.30;99.90
16388;DHT22;8303;53.446;9.988;2022-07-23T19:17:12;17.10;99.90
16388;DHT22;8303;53.446;9.988;2022-07-23T19:19:39;17.10;99.90
16388;DHT22;8303;53.446;9.988;2022-07-23T19:22:07;17.10;99.90
16388;DHT22;8303;53.446;9.988;2022-07-23T19:24:35;17.00;99.90
16388;DHT22;8303;53.446;9.988;2022-07-23T19:27:04;16.90;99.90
16388;DHT22;8303;53.446;9.988;2022-07-23T19:29:31;16.80;99.90
16388;DHT22;8303;53.446;9.988;2022-07-23T19:32:00;16.80;99.90
16388;DHT22;8303;53.446;9.988;2022-07-23T19:34:27;16.80;99.90
16388;DHT22;8303;53.446;9.988;2022-07-23T19:36:54;16.60;99.90
16388;DHT22;8303;53.446;9.988;2022-07-23T19:39:22;16.60;99.90
16388;DHT22;8303;53.446;9.988;2022-07-23T19:41:49;16.50;99.90
16388;DHT22;8303;53.446;9.988;2022-07-23T19:44:16;16.40;99.90
16388;DHT22;8303;53.446;9.988;2022-07-23T19:46:43;16.40;99.90
16388;DHT22;8303;53.446;9.988;2022-07-23T19:49:10;16.30;99.90
16388;DHT22;8303;53.446;9.988;2022-07-23T19:51:36;16.30;99.90
16388;DHT22;8303;53.446;9.988;2022-07-23T19:54:03;16.20;99.90
16388;DHT22;8303;53.446;9.988;2022-07-23T19:56:32;16.20;99.90
16388;DHT22;8303;53.446;9.988;2022-07-23T19:58:58;16.10;99.90
16388;DHT22;8303;53.446;9.988;2022-07-23T20:01:25;16.10;99.90
16388;DHT22;8303;53.446;9.988;2022-07-23T20:03:52;16.10;99.90
16388;DHT22;8303;53.446;9.988;2022-07-23T20:06:19;16.00;99.90
16388;DHT22;8303;53.446;9.988;2022-07-23T20:08:46;16.00;99.90
16388;DHT22;8303;53.446;9.988;2022-07-23T20:11:12;15.90;99.90
16388;DHT22;8303;53.446;9.988;2022-07-23T20:13:41;15.90;99.90
16388;DHT22;8303;53.446;9.988;2022-07-23T20:16:08;15.90;99.90
16388;DHT22;8303;53.446;9.988;2022-07-23T20:18:35;15.80;99.90
16388;DHT22;8303;53.446;9.988;2022-07-23T20:21:03;15.70;99.90
16388;DHT22;8303;53.446;9.988;2022-07-23T20:23:30;15.70;99.90
16388;DHT22;8303;53.446;9.988;2022-07-23T20:25:57;15.70;99.90
16388;DHT22;8303;53.446;9.988;2022-07-23T20:28:24;15.60;99.90
